createdAt,value
2018-05-24T00:00:40.045Z,57.00
2018-05-24T00:01:40.035Z,55.80
2018-05-24T00:02:40.025Z,56.10
2018-05-24T00:03:40.012Z,57.40
2018-05-24T00:04:40.004Z,56.40
2018-05-24T00:05:39.991Z,59.00
2018-05-24T00:06:39.980Z,57.10
2018-05-24T00:07:39.967Z,58.50
2018-05-24T00:08:39.957Z,62.10
2018-05-24T00:09:39.946Z,58.60
2018-05-24T00:10:39.936Z,57.00
2018-05-24T00:11:39.925Z,60.10
2018-05-24T00:12:39.916Z,56.00
2018-05-24T00:13:39.903Z,57.60
2018-05-24T00:14:39.891Z,56.10
2018-05-24T00:15:39.880Z,57.50
2018-05-24T00:16:39.869Z,60.90
2018-05-24T00:17:39.858Z,58.20
2018-05-24T00:18:39.848Z,59.80
2018-05-24T00:19:39.835Z,56.20
2018-05-24T00:20:39.825Z,56.50
2018-05-24T00:21:39.815Z,58.70
2018-05-24T00:22:39.804Z,57.70
2018-05-24T00:23:39.792Z,58.70
2018-05-24T00:24:39.782Z,58.10
2018-05-24T00:25:39.769Z,58.80
2018-05-24T00:26:39.761Z,58.60
2018-05-24T00:27:39.749Z,58.60
2018-05-24T00:28:39.738Z,58.30
2018-05-24T00:29:39.776Z,57.10
2018-05-24T00:30:39.715Z,53.80
2018-05-24T00:31:39.705Z,50.80
2018-05-24T00:32:39.692Z,50.00
2018-05-24T00:33:39.684Z,49.40
2018-05-24T00:34:39.671Z,48.10
2018-05-24T00:35:39.659Z,49.10
2018-05-24T00:36:39.650Z,47.20
2018-05-24T00:37:39.637Z,43.00
2018-05-24T00:38:39.628Z,41.90
2018-05-24T00:39:39.615Z,41.80
2018-05-24T00:40:39.605Z,40.10
2018-05-24T00:41:39.594Z,40.60
2018-05-24T00:42:39.582Z,42.50
2018-05-24T00:43:39.571Z,40.50
2018-05-24T00:44:39.560Z,42.40
2018-05-24T00:45:39.550Z,41.50
2018-05-24T00:46:39.539Z,41.60
2018-05-24T00:47:39.527Z,40.50
2018-05-24T00:48:39.516Z,39.60
2018-05-24T00:49:39.504Z,36.30
2018-05-24T00:50:39.538Z,38.20
2018-05-24T00:51:39.484Z,37.10
2018-05-24T00:52:39.473Z,38.00
2018-05-24T00:53:39.460Z,34.90
2018-05-24T00:54:39.523Z,37.70
2018-05-24T00:55:39.441Z,37.70
2018-05-24T00:56:39.428Z,38.20
2018-05-24T00:57:39.417Z,39.70
2018-05-24T00:58:39.407Z,39.50
2018-05-24T00:59:39.600Z,40.00
2018-05-24T01:00:39.383Z,39.70
2018-05-24T01:01:39.372Z,37.60
2018-05-24T01:02:39.361Z,35.10
2018-05-24T01:03:39.351Z,34.30
2018-05-24T01:04:39.338Z,35.40
2018-05-24T01:05:39.428Z,38.70
2018-05-24T01:06:39.319Z,34.80
2018-05-24T01:07:39.309Z,36.90
2018-05-24T01:08:39.297Z,35.70
2018-05-24T01:09:39.284Z,34.50
2018-05-24T01:10:39.274Z,31.10
2018-05-24T01:11:39.264Z,30.40
2018-05-24T01:12:39.252Z,31.40
2018-05-24T01:13:39.242Z,31.50
2018-05-24T01:14:39.232Z,30.90
2018-05-24T01:15:39.220Z,29.30
2018-05-24T01:16:39.209Z,28.90
2018-05-24T01:17:39.199Z,29.80
2018-05-24T01:18:39.187Z,28.00
2018-05-24T01:19:39.177Z,28.30
2018-05-24T01:20:39.170Z,30.70
2018-05-24T01:21:39.156Z,29.60
2018-05-24T01:22:39.146Z,30.00
2018-05-24T01:23:39.137Z,30.90
2018-05-24T01:24:39.124Z,29.60
2018-05-24T01:25:39.116Z,27.70
2018-05-24T01:26:39.102Z,28.30
2018-05-24T01:27:39.090Z,27.60
2018-05-24T01:28:39.080Z,27.40
2018-05-24T01:29:39.269Z,28.20
2018-05-24T01:30:39.059Z,28.20
2018-05-24T01:31:39.050Z,27.80
2018-05-24T01:32:39.036Z,27.60
2018-05-24T01:33:39.027Z,28.30
2018-05-24T01:34:39.020Z,27.80
2018-05-24T01:35:39.006Z,25.70
2018-05-24T01:36:38.994Z,27.40
2018-05-24T01:37:38.984Z,27.50
2018-05-24T01:38:38.973Z,27.60
2018-05-24T01:39:38.962Z,28.20
2018-05-24T01:40:38.951Z,27.20
2018-05-24T01:41:38.993Z,28.30
2018-05-24T01:42:38.930Z,27.20
2018-05-24T01:43:38.922Z,28.00
2018-05-24T01:44:38.911Z,27.80
2018-05-24T01:45:38.899Z,28.70
2018-05-24T01:46:38.888Z,28.40
2018-05-24T01:47:38.877Z,29.30
2018-05-24T01:48:38.867Z,27.30
2018-05-24T01:49:38.858Z,29.10
2018-05-24T01:50:38.847Z,28.30
2018-05-24T01:51:38.836Z,29.50
2018-05-24T01:52:38.827Z,29.10
2018-05-24T01:53:38.815Z,29.60
2018-05-24T01:54:38.805Z,28.40
2018-05-24T01:55:38.792Z,27.90
2018-05-24T01:56:38.783Z,28.90
2018-05-24T01:57:38.773Z,27.90
2018-05-24T01:58:38.762Z,24.20
2018-05-24T01:59:38.751Z,23.80
2018-05-24T02:00:38.739Z,24.50
2018-05-24T02:01:38.734Z,24.10
2018-05-24T02:02:38.720Z,23.60
2018-05-24T02:03:38.708Z,22.40
2018-05-24T02:04:38.696Z,22.80
2018-05-24T02:05:38.687Z,21.70
2018-05-24T02:06:38.676Z,21.90
2018-05-24T02:07:38.664Z,22.10
2018-05-24T02:08:38.655Z,21.20
2018-05-24T02:09:38.644Z,21.70
2018-05-24T02:10:38.634Z,22.10
2018-05-24T02:11:38.822Z,22.70
2018-05-24T02:12:38.611Z,22.70
2018-05-24T02:13:38.600Z,23.60
2018-05-24T02:14:38.591Z,22.50
2018-05-24T02:15:38.580Z,22.70
2018-05-24T02:16:38.568Z,24.30
2018-05-24T02:17:38.557Z,23.40
2018-05-24T02:18:38.555Z,23.20
2018-05-24T02:19:38.541Z,21.10
2018-05-24T02:20:38.527Z,20.00
2018-05-24T02:21:38.515Z,20.80
2018-05-24T02:22:38.504Z,19.40
2018-05-24T02:23:38.542Z,19.90
2018-05-24T02:24:38.483Z,19.60
2018-05-24T02:25:38.472Z,19.10
2018-05-24T02:26:38.461Z,19.80
2018-05-24T02:27:38.450Z,18.90
2018-05-24T02:28:38.439Z,18.80
2018-05-24T02:29:38.631Z,19.80
2018-05-24T02:30:38.418Z,20.10
2018-05-24T02:31:38.406Z,19.40
2018-05-24T02:32:38.397Z,19.20
2018-05-24T02:33:38.385Z,20.60
2018-05-24T02:34:38.383Z,19.60
2018-05-24T02:35:38.364Z,19.80
2018-05-24T02:36:38.355Z,22.30
2018-05-24T02:37:38.342Z,21.00
2018-05-24T02:38:38.334Z,20.00
2018-05-24T02:39:38.320Z,21.60
2018-05-24T02:40:38.309Z,21.00
2018-05-24T02:41:38.349Z,20.70
2018-05-24T02:42:38.288Z,21.80
2018-05-24T02:43:38.278Z,21.80
2018-05-24T02:44:38.267Z,21.90
2018-05-24T02:45:38.306Z,23.60
2018-05-24T02:46:38.245Z,22.40
2018-05-24T02:47:38.283Z,22.50
2018-05-24T02:48:38.226Z,22.90
2018-05-24T02:49:38.213Z,22.90
2018-05-24T02:50:38.209Z,24.00
2018-05-24T02:51:38.191Z,23.80
2018-05-24T02:52:38.180Z,23.80
2018-05-24T02:53:38.172Z,24.10
2018-05-24T02:54:38.157Z,24.90
2018-05-24T02:55:38.146Z,24.40
2018-05-24T02:56:38.136Z,23.90
2018-05-24T02:57:38.127Z,23.80
2018-05-24T02:58:38.114Z,24.70
2018-05-24T02:59:38.104Z,25.80
2018-05-24T03:00:38.092Z,24.70
2018-05-24T03:01:38.100Z,25.50
2018-05-24T03:02:38.069Z,26.50
2018-05-24T03:03:38.057Z,26.10
2018-05-24T03:04:38.048Z,26.10
2018-05-24T03:05:38.035Z,26.50
2018-05-24T03:06:38.027Z,25.10
2018-05-24T03:07:38.013Z,26.80
2018-05-24T03:08:38.003Z,25.70
2018-05-24T03:09:37.993Z,27.80
2018-05-24T03:10:37.984Z,27.40
2018-05-24T03:11:37.970Z,28.90
2018-05-24T03:12:37.958Z,29.80
2018-05-24T03:13:37.947Z,29.50
2018-05-24T03:14:37.937Z,30.90
2018-05-24T03:15:37.924Z,32.10
2018-05-24T03:16:37.917Z,32.50
2018-05-24T03:17:37.903Z,32.90
2018-05-24T03:18:37.893Z,31.10
2018-05-24T03:19:37.879Z,32.50
2018-05-24T03:20:37.869Z,32.00
2018-05-24T03:21:37.859Z,31.40
2018-05-24T03:22:37.849Z,33.70
2018-05-24T03:23:37.835Z,33.30
2018-05-24T03:24:37.824Z,33.30
2018-05-24T03:25:37.815Z,32.70
2018-05-24T03:26:37.802Z,32.70
2018-05-24T03:27:37.791Z,32.10
2018-05-24T03:28:37.781Z,32.20
2018-05-24T03:29:37.820Z,31.80
2018-05-24T03:30:37.759Z,31.80
2018-05-24T03:31:37.747Z,32.20
2018-05-24T03:32:37.736Z,32.60
2018-05-24T03:33:37.726Z,31.50
2018-05-24T03:34:37.714Z,31.40
2018-05-24T03:35:37.701Z,31.50
2018-05-24T03:36:37.690Z,31.00
2018-05-24T03:37:37.679Z,30.30
2018-05-24T03:38:37.668Z,32.80
2018-05-24T03:39:37.658Z,32.10
2018-05-24T03:40:37.645Z,31.20
2018-05-24T03:41:37.636Z,31.50
2018-05-24T03:42:37.624Z,32.30
2018-05-24T03:43:37.613Z,30.80
2018-05-24T03:44:37.601Z,30.70
2018-05-24T03:45:37.590Z,32.10
2018-05-24T03:46:37.580Z,30.40
2018-05-24T03:47:37.778Z,33.00
2018-05-24T03:48:37.556Z,31.80
2018-05-24T03:49:37.545Z,31.20
2018-05-24T03:50:37.534Z,31.70
2018-05-24T03:51:37.522Z,32.40
2018-05-24T03:52:37.512Z,31.40
2018-05-24T03:53:37.550Z,31.20
2018-05-24T03:54:37.491Z,31.00
2018-05-24T03:55:37.478Z,31.20
2018-05-24T03:56:37.470Z,31.80
2018-05-24T03:57:37.462Z,32.40
2018-05-24T03:58:37.447Z,33.00
2018-05-24T03:59:37.483Z,32.10
2018-05-24T04:00:37.422Z,33.20
2018-05-24T04:01:37.413Z,33.80
2018-05-24T04:02:37.400Z,34.00
2018-05-24T04:03:37.388Z,33.10
2018-05-24T04:04:37.378Z,34.00
2018-05-24T04:05:37.369Z,33.70
2018-05-24T04:06:37.357Z,34.80
2018-05-24T04:07:37.343Z,35.90
2018-05-24T04:08:37.334Z,34.30
2018-05-24T04:09:37.323Z,34.30
2018-05-24T04:10:37.316Z,35.20
2018-05-24T04:11:37.499Z,35.50
2018-05-24T04:12:37.294Z,35.90
2018-05-24T04:13:37.276Z,36.10
2018-05-24T04:14:37.266Z,36.20
2018-05-24T04:15:37.257Z,36.40
2018-05-24T04:16:37.245Z,36.60
2018-05-24T04:17:37.231Z,35.30
2018-05-24T04:18:37.220Z,36.50
2018-05-24T04:19:37.210Z,37.20
2018-05-24T04:20:37.199Z,37.80
2018-05-24T04:21:37.187Z,37.40
2018-05-24T04:22:37.179Z,36.80
2018-05-24T04:23:37.366Z,37.50
2018-05-24T04:24:37.156Z,37.70
2018-05-24T04:25:37.147Z,38.30
2018-05-24T04:26:37.132Z,37.50
2018-05-24T04:27:37.118Z,37.40
2018-05-24T04:28:37.117Z,38.30
2018-05-24T04:29:37.297Z,39.70
2018-05-24T04:30:37.088Z,38.20
2018-05-24T04:31:37.075Z,37.90
2018-05-24T04:32:37.063Z,37.80
2018-05-24T04:33:37.051Z,37.60
2018-05-24T04:34:37.040Z,37.60
2018-05-24T04:35:37.030Z,39.60
2018-05-24T04:36:37.019Z,37.70
2018-05-24T04:37:37.007Z,40.50
2018-05-24T04:38:36.996Z,37.80
2018-05-24T04:39:36.983Z,38.50
2018-05-24T04:40:36.972Z,38.80
2018-05-24T04:41:36.962Z,38.00
2018-05-24T04:42:36.951Z,40.50
2018-05-24T04:43:36.938Z,39.10
2018-05-24T04:44:36.927Z,39.80
2018-05-24T04:45:37.006Z,40.40
2018-05-24T04:46:36.906Z,40.50
2018-05-24T04:47:36.892Z,38.80
2018-05-24T04:48:36.883Z,38.30
2018-05-24T04:49:36.871Z,39.20
2018-05-24T04:50:36.861Z,40.30
2018-05-24T04:51:36.848Z,40.70
2018-05-24T04:52:36.838Z,40.10
2018-05-24T04:53:37.025Z,41.80
2018-05-24T04:54:36.817Z,41.20
2018-05-24T04:55:36.801Z,40.10
2018-05-24T04:56:36.790Z,41.30
2018-05-24T04:57:36.782Z,39.80
2018-05-24T04:58:36.767Z,41.00
2018-05-24T04:59:36.756Z,40.40
2018-05-24T05:00:36.745Z,39.20
2018-05-24T05:01:36.788Z,39.20
2018-05-24T05:02:36.722Z,40.50
2018-05-24T05:03:36.715Z,41.50
2018-05-24T05:04:36.699Z,39.00
2018-05-24T05:05:36.892Z,40.30
2018-05-24T05:06:36.678Z,40.70
2018-05-24T05:07:36.665Z,39.50
2018-05-24T05:08:36.654Z,39.30
2018-05-24T05:09:36.644Z,40.60
2018-05-24T05:10:36.631Z,40.60
2018-05-24T05:11:36.820Z,39.10
2018-05-24T05:12:36.668Z,40.20
2018-05-24T05:13:36.597Z,40.70
2018-05-24T05:14:36.677Z,40.80
2018-05-24T05:15:36.573Z,40.60
2018-05-24T05:16:36.563Z,41.30
2018-05-24T05:17:36.551Z,40.10
2018-05-24T05:18:36.540Z,41.50
2018-05-24T05:19:36.631Z,39.10
2018-05-24T05:20:36.516Z,39.50
2018-05-24T05:21:36.506Z,40.50
2018-05-24T05:22:36.495Z,41.00
2018-05-24T05:23:36.484Z,40.60
2018-05-24T05:24:36.470Z,40.70
2018-05-24T05:25:36.460Z,39.80
2018-05-24T05:26:36.449Z,41.50
2018-05-24T05:27:36.436Z,41.60
2018-05-24T05:28:36.425Z,39.40
2018-05-24T05:29:36.414Z,40.20
2018-05-24T05:30:36.461Z,41.30
2018-05-24T05:31:36.392Z,41.40
2018-05-24T05:32:36.381Z,39.80
2018-05-24T05:33:36.367Z,41.50
2018-05-24T05:34:36.357Z,40.10
2018-05-24T05:35:36.346Z,40.00
2018-05-24T05:36:36.334Z,39.60
2018-05-24T05:37:36.322Z,40.90
2018-05-24T05:38:36.311Z,41.10
2018-05-24T05:39:36.301Z,42.00
2018-05-24T05:40:36.288Z,39.70
2018-05-24T05:41:36.280Z,39.70
2018-05-24T05:42:36.266Z,40.30
2018-05-24T05:43:36.253Z,39.40
2018-05-24T05:44:36.241Z,39.00
2018-05-24T05:45:36.231Z,39.00
2018-05-24T05:46:36.219Z,39.10
2018-05-24T05:47:36.210Z,38.80
2018-05-24T05:48:36.196Z,38.30
2018-05-24T05:49:36.184Z,38.00
2018-05-24T05:50:36.173Z,38.90
2018-05-24T05:51:36.162Z,39.50
2018-05-24T05:52:36.155Z,38.70
2018-05-24T05:53:36.339Z,39.40
2018-05-24T05:54:36.130Z,38.20
2018-05-24T05:55:36.115Z,39.10
2018-05-24T05:56:36.103Z,39.00
2018-05-24T05:57:36.092Z,38.40
2018-05-24T05:58:36.082Z,38.40
2018-05-24T05:59:36.070Z,38.80
2018-05-24T06:00:36.057Z,38.90
2018-05-24T06:01:36.095Z,39.30
2018-05-24T06:02:36.035Z,40.40
2018-05-24T06:03:36.027Z,38.50
2018-05-24T06:04:36.011Z,38.20
2018-05-24T06:05:35.999Z,37.80
2018-05-24T06:06:35.988Z,37.50
2018-05-24T06:07:35.976Z,37.50
2018-05-24T06:08:35.966Z,37.00
2018-05-24T06:09:36.027Z,37.60
2018-05-24T06:10:35.944Z,38.10
2018-05-24T06:11:35.931Z,37.50
2018-05-24T06:12:35.919Z,37.10
2018-05-24T06:13:35.909Z,39.10
2018-05-24T06:14:35.896Z,37.10
2018-05-24T06:15:35.889Z,37.40
2018-05-24T06:16:35.875Z,38.50
2018-05-24T06:17:35.861Z,39.10
2018-05-24T06:18:35.850Z,38.10
2018-05-24T06:19:35.839Z,37.90
2018-05-24T06:20:35.831Z,37.30
2018-05-24T06:21:35.901Z,38.60
2018-05-24T06:22:35.805Z,36.90
2018-05-24T06:23:35.992Z,38.20
2018-05-24T06:24:35.780Z,39.00
2018-05-24T06:25:35.769Z,37.60
2018-05-24T06:26:35.758Z,38.30
2018-05-24T06:27:35.745Z,40.00
2018-05-24T06:28:35.772Z,39.90
2018-05-24T06:29:35.924Z,38.50
2018-05-24T06:30:35.711Z,38.40
2018-05-24T06:31:35.699Z,39.20
2018-05-24T06:32:35.687Z,38.40
2018-05-24T06:33:35.677Z,37.70
2018-05-24T06:34:35.666Z,39.10
2018-05-24T06:35:35.652Z,38.10
2018-05-24T06:36:35.643Z,38.20
2018-05-24T06:37:35.631Z,39.70
2018-05-24T06:38:35.618Z,38.60
2018-05-24T06:39:35.606Z,39.70
2018-05-24T06:40:35.637Z,38.70
2018-05-24T06:41:35.784Z,39.00
2018-05-24T06:42:35.572Z,40.00
2018-05-24T06:43:35.561Z,39.40
2018-05-24T06:44:35.548Z,39.20
2018-05-24T06:45:35.538Z,40.90
2018-05-24T06:46:35.582Z,39.90
2018-05-24T06:47:35.514Z,40.70
2018-05-24T06:48:35.503Z,40.90
2018-05-24T06:49:35.490Z,40.00
2018-05-24T06:50:35.478Z,41.60
2018-05-24T06:51:35.466Z,40.10
2018-05-24T06:52:35.454Z,41.10
2018-05-24T06:53:35.456Z,39.50
2018-05-24T06:54:35.432Z,38.50
2018-05-24T06:55:35.424Z,38.50
2018-05-24T06:56:35.409Z,38.80
2018-05-24T06:57:35.398Z,40.50
2018-05-24T06:58:35.384Z,40.40
2018-05-24T06:59:35.372Z,40.20
2018-05-24T07:00:35.361Z,41.40
2018-05-24T07:01:35.351Z,39.60
2018-05-24T07:02:35.340Z,40.50
2018-05-24T07:03:35.327Z,41.30
2018-05-24T07:04:35.318Z,41.40
2018-05-24T07:05:35.306Z,41.40
2018-05-24T07:06:35.291Z,41.20
2018-05-24T07:07:35.280Z,41.30
2018-05-24T07:08:35.268Z,40.10
2018-05-24T07:09:35.255Z,41.20
2018-05-24T07:10:35.244Z,40.50
2018-05-24T07:11:35.432Z,40.70
2018-05-24T07:12:35.220Z,40.00
2018-05-24T07:13:35.208Z,41.00
2018-05-24T07:14:35.198Z,41.50
2018-05-24T07:15:35.186Z,41.00
2018-05-24T07:16:35.173Z,41.50
2018-05-24T07:17:35.161Z,41.60
2018-05-24T07:18:35.240Z,41.50
2018-05-24T07:19:35.139Z,42.30
2018-05-24T07:20:35.128Z,45.20
2018-05-24T07:21:35.114Z,44.50
2018-05-24T07:22:35.103Z,42.20
2018-05-24T07:23:35.092Z,41.70
2018-05-24T07:24:35.121Z,41.60
2018-05-24T07:25:35.069Z,42.60
2018-05-24T07:26:35.056Z,41.40
2018-05-24T07:27:35.044Z,42.90
2018-05-24T07:28:35.032Z,43.70
2018-05-24T07:29:35.026Z,43.40
2018-05-24T07:30:35.009Z,42.80
2018-05-24T07:31:34.998Z,43.40
2018-05-24T07:32:34.986Z,43.80
2018-05-24T07:33:34.974Z,43.40
2018-05-24T07:34:34.962Z,42.60
2018-05-24T07:35:34.952Z,43.90
2018-05-24T07:36:34.939Z,43.50
2018-05-24T07:37:34.926Z,42.00
2018-05-24T07:38:34.918Z,42.90
2018-05-24T07:39:34.929Z,42.00
2018-05-24T07:40:34.893Z,41.10
2018-05-24T07:41:35.083Z,42.00
2018-05-24T07:42:34.870Z,43.30
2018-05-24T07:43:34.856Z,43.50
2018-05-24T07:44:34.880Z,43.10
2018-05-24T07:45:34.832Z,42.70
2018-05-24T07:46:34.825Z,43.90
2018-05-24T07:47:34.807Z,41.60
2018-05-24T07:48:34.802Z,42.30
2018-05-24T07:49:34.785Z,41.80
2018-05-24T07:50:34.789Z,42.20
2018-05-24T07:51:34.759Z,40.90
2018-05-24T07:52:34.748Z,41.50
2018-05-24T07:53:34.746Z,39.30
2018-05-24T07:54:34.725Z,39.70
2018-05-24T07:55:34.713Z,40.40
2018-05-24T07:56:34.701Z,40.50
2018-05-24T07:57:34.689Z,42.70
2018-05-24T07:58:34.683Z,39.70
2018-05-24T07:59:34.670Z,39.30
2018-05-24T08:00:34.658Z,39.50
2018-05-24T08:01:34.719Z,39.40
2018-05-24T08:02:34.632Z,39.40
2018-05-24T08:03:34.618Z,40.00
2018-05-24T08:04:34.609Z,37.60
2018-05-24T08:05:34.796Z,37.70
2018-05-24T08:06:34.589Z,37.20
2018-05-24T08:07:34.570Z,36.40
2018-05-24T08:08:34.633Z,36.20
2018-05-24T08:09:34.547Z,37.50
2018-05-24T08:10:34.535Z,37.30
2018-05-24T08:11:34.522Z,37.70
2018-05-24T08:12:34.512Z,38.20
2018-05-24T08:13:34.500Z,38.60
2018-05-24T08:14:34.487Z,37.40
2018-05-24T08:15:34.475Z,36.60
2018-05-24T08:16:34.462Z,38.00
2018-05-24T08:17:34.452Z,36.40
2018-05-24T08:18:34.438Z,36.90
2018-05-24T08:19:34.429Z,37.20
2018-05-24T08:20:34.414Z,35.10
2018-05-24T08:21:34.402Z,35.20
2018-05-24T08:22:34.445Z,37.10
2018-05-24T08:23:34.377Z,36.30
2018-05-24T08:24:34.365Z,36.20
2018-05-24T08:25:34.353Z,36.30
2018-05-24T08:26:34.341Z,34.90
2018-05-24T08:27:34.329Z,33.40
2018-05-24T08:28:34.331Z,33.50
2018-05-24T08:29:34.505Z,33.30
2018-05-24T08:30:34.297Z,32.10
2018-05-24T08:31:34.280Z,33.40
2018-05-24T08:32:34.271Z,32.60
2018-05-24T08:33:34.256Z,33.30
2018-05-24T08:34:34.253Z,34.60
2018-05-24T08:35:34.232Z,35.20
2018-05-24T08:36:34.220Z,33.90
2018-05-24T08:37:34.208Z,33.80
2018-05-24T08:38:34.197Z,33.10
2018-05-24T08:39:34.183Z,31.70
2018-05-24T08:40:34.247Z,32.50
2018-05-24T08:41:34.160Z,31.70
2018-05-24T08:42:34.147Z,31.10
2018-05-24T08:43:34.138Z,31.40
2018-05-24T08:44:34.122Z,32.00
2018-05-24T08:45:34.110Z,30.80
2018-05-24T08:46:34.178Z,32.00
2018-05-24T08:47:34.086Z,34.20
2018-05-24T08:48:34.078Z,32.80
2018-05-24T08:49:34.062Z,32.70
2018-05-24T08:50:34.051Z,33.40
2018-05-24T08:51:34.042Z,36.50
2018-05-24T08:52:34.026Z,36.00
2018-05-24T08:53:34.014Z,35.40
2018-05-24T08:54:34.003Z,33.00
2018-05-24T08:55:33.990Z,33.10
2018-05-24T08:56:33.981Z,32.00
2018-05-24T08:57:33.965Z,31.40
2018-05-24T08:58:33.954Z,30.10
2018-05-24T08:59:33.941Z,30.00
2018-05-24T09:00:33.930Z,29.60
2018-05-24T09:01:34.004Z,30.80
2018-05-24T09:02:33.906Z,29.00
2018-05-24T09:03:33.892Z,29.70
2018-05-24T09:04:33.882Z,31.80
2018-05-24T09:05:33.869Z,30.80
2018-05-24T09:06:33.861Z,28.80
2018-05-24T09:07:33.844Z,27.90
2018-05-24T09:08:33.832Z,28.50
2018-05-24T09:09:33.856Z,28.70
2018-05-24T09:10:33.809Z,28.80
2018-05-24T09:11:33.796Z,26.60
2018-05-24T09:12:33.785Z,26.10
2018-05-24T09:13:33.773Z,25.40
2018-05-24T09:14:33.761Z,25.00
2018-05-24T09:15:33.747Z,24.90
2018-05-24T09:16:33.735Z,25.40
2018-05-24T09:17:33.723Z,26.60
2018-05-24T09:18:33.711Z,25.80
2018-05-24T09:19:33.699Z,24.20
2018-05-24T09:20:33.686Z,24.70
2018-05-24T09:21:33.676Z,24.20
2018-05-24T09:22:33.663Z,25.30
2018-05-24T09:23:33.852Z,24.20
2018-05-24T09:24:33.638Z,23.80
2018-05-24T09:25:33.628Z,23.70
2018-05-24T09:26:33.615Z,23.60
2018-05-24T09:27:33.610Z,24.10
2018-05-24T09:28:33.590Z,24.10
2018-05-24T09:29:33.582Z,22.90
2018-05-24T09:30:33.570Z,24.60
2018-05-24T09:31:33.555Z,23.80
2018-05-24T09:32:33.543Z,23.90
2018-05-24T09:33:33.530Z,24.50
2018-05-24T09:34:33.520Z,25.30
2018-05-24T09:35:33.706Z,23.80
2018-05-24T09:36:33.492Z,23.80
2018-05-24T09:37:33.482Z,25.10
2018-05-24T09:38:33.471Z,25.70
2018-05-24T09:39:33.458Z,25.50
2018-05-24T09:40:33.444Z,25.60
2018-05-24T09:41:33.634Z,25.60
2018-05-24T09:42:33.425Z,24.50
2018-05-24T09:43:33.408Z,25.00
2018-05-24T09:44:33.397Z,25.30
2018-05-24T09:45:33.387Z,26.00
2018-05-24T09:46:33.372Z,27.20
2018-05-24T09:47:33.360Z,27.30
2018-05-24T09:48:33.348Z,26.80
2018-05-24T09:49:33.336Z,27.60
2018-05-24T09:50:33.323Z,25.70
2018-05-24T09:51:33.311Z,25.70
2018-05-24T09:52:33.298Z,25.80
2018-05-24T09:53:33.287Z,27.30
2018-05-24T09:54:33.276Z,26.80
2018-05-24T09:55:33.263Z,27.10
2018-05-24T09:56:33.251Z,27.00
2018-05-24T09:57:33.240Z,25.30
2018-05-24T09:58:33.228Z,28.30
2018-05-24T09:59:33.214Z,28.00
2018-05-24T10:00:33.202Z,26.80
2018-05-24T10:01:33.194Z,26.60
2018-05-24T10:02:33.184Z,27.60
2018-05-24T10:03:33.167Z,26.30
2018-05-24T10:04:33.228Z,27.10
2018-05-24T10:05:33.143Z,26.50
2018-05-24T10:06:33.130Z,28.10
2018-05-24T10:07:33.119Z,26.30
2018-05-24T10:08:33.105Z,25.80
2018-05-24T10:09:33.094Z,25.60
2018-05-24T10:10:33.139Z,27.60
2018-05-24T10:11:33.269Z,27.30
2018-05-24T10:12:33.058Z,27.90
2018-05-24T10:13:33.047Z,27.40
2018-05-24T10:14:33.034Z,27.60
2018-05-24T10:15:33.024Z,27.50
2018-05-24T10:16:33.087Z,27.30
2018-05-24T10:17:32.997Z,26.90
2018-05-24T10:18:32.986Z,25.90
2018-05-24T10:19:32.974Z,26.70
2018-05-24T10:20:32.963Z,27.50
2018-05-24T10:21:32.949Z,26.50
2018-05-24T10:22:33.007Z,25.50
2018-05-24T10:23:33.005Z,25.10
2018-05-24T10:24:32.912Z,24.10
2018-05-24T10:25:32.902Z,24.50
2018-05-24T10:26:32.889Z,25.30
2018-05-24T10:27:32.876Z,25.60
2018-05-24T10:28:32.867Z,26.10
2018-05-24T10:29:33.055Z,26.40
2018-05-24T10:30:32.841Z,27.40
2018-05-24T10:31:32.828Z,25.40
2018-05-24T10:32:32.816Z,26.10
2018-05-24T10:33:32.806Z,25.40
2018-05-24T10:34:32.795Z,26.60
2018-05-24T10:35:32.781Z,26.40
2018-05-24T10:36:32.769Z,26.50
2018-05-24T10:37:32.759Z,26.80
2018-05-24T10:38:32.761Z,27.40
2018-05-24T10:39:32.737Z,28.00
2018-05-24T10:40:32.724Z,27.70
2018-05-24T10:41:32.711Z,27.40
2018-05-24T10:42:32.699Z,30.20
2018-05-24T10:43:32.688Z,27.50
2018-05-24T10:44:32.676Z,28.60
2018-05-24T10:45:32.665Z,29.80
2018-05-24T10:46:32.652Z,29.40
2018-05-24T10:47:32.643Z,28.80
2018-05-24T10:48:32.630Z,27.00
2018-05-24T10:49:32.619Z,28.10
2018-05-24T10:50:32.605Z,29.50
2018-05-24T10:51:32.599Z,28.60
2018-05-24T10:52:32.582Z,27.90
2018-05-24T10:53:32.570Z,29.20
2018-05-24T10:54:32.559Z,30.00
2018-05-24T10:55:32.548Z,29.50
2018-05-24T10:56:32.537Z,29.10
2018-05-24T10:57:32.524Z,29.70
2018-05-24T10:58:32.514Z,29.70
2018-05-24T10:59:32.575Z,30.30
2018-05-24T11:00:32.489Z,31.70
2018-05-24T11:01:32.479Z,32.30
2018-05-24T11:02:32.469Z,31.70
2018-05-24T11:03:32.455Z,33.50
2018-05-24T11:04:32.449Z,32.40
2018-05-24T11:05:32.435Z,32.50
2018-05-24T11:06:32.422Z,31.90
2018-05-24T11:07:32.411Z,31.70
2018-05-24T11:08:32.402Z,33.40
2018-05-24T11:09:32.393Z,33.90
2018-05-24T11:10:32.378Z,32.20
2018-05-24T11:11:32.453Z,32.80
2018-05-24T11:12:32.353Z,32.50
2018-05-24T11:13:32.344Z,32.40
2018-05-24T11:14:32.332Z,32.90
2018-05-24T11:15:32.319Z,32.50
2018-05-24T11:16:32.313Z,32.30
2018-05-24T11:17:32.497Z,32.40
2018-05-24T11:18:32.288Z,33.10
2018-05-24T11:19:32.276Z,34.30
2018-05-24T11:20:32.265Z,32.90
2018-05-24T11:21:32.256Z,34.40
2018-05-24T11:22:32.246Z,34.00
2018-05-24T11:23:32.230Z,34.00
2018-05-24T11:24:32.219Z,32.60
2018-05-24T11:25:32.208Z,32.70
2018-05-24T11:26:32.197Z,32.40
2018-05-24T11:27:32.185Z,33.20
2018-05-24T11:28:32.174Z,33.50
2018-05-24T11:29:32.163Z,32.90
2018-05-24T11:30:32.152Z,32.30
2018-05-24T11:31:32.142Z,33.50
2018-05-24T11:32:32.129Z,32.70
2018-05-24T11:33:32.120Z,31.60
2018-05-24T11:34:32.112Z,31.50
2018-05-24T11:35:32.147Z,30.00
2018-05-24T11:36:32.087Z,29.60
2018-05-24T11:37:32.078Z,30.20
2018-05-24T11:38:32.067Z,27.90
2018-05-24T11:39:32.055Z,29.10
2018-05-24T11:40:32.047Z,30.00
2018-05-24T11:41:32.239Z,31.80
2018-05-24T11:42:32.025Z,29.50
2018-05-24T11:43:32.235Z,29.40
2018-05-24T11:44:32.005Z,28.70
2018-05-24T11:45:31.993Z,28.00
2018-05-24T11:46:32.133Z,28.70
2018-05-24T11:47:31.972Z,29.80
2018-05-24T11:48:31.963Z,27.90
2018-05-24T11:49:31.958Z,29.00
2018-05-24T11:50:31.944Z,28.80
2018-05-24T11:51:31.942Z,27.00
2018-05-24T11:52:31.925Z,24.90
2018-05-24T11:53:31.914Z,25.30
2018-05-24T11:54:31.906Z,26.30
2018-05-24T11:55:31.895Z,27.80
2018-05-24T11:56:31.887Z,29.20
2018-05-24T11:57:32.077Z,27.60
2018-05-24T11:58:31.872Z,27.00
2018-05-24T11:59:31.857Z,28.60
2018-05-24T12:00:31.849Z,27.60
2018-05-24T12:01:31.840Z,26.90
2018-05-24T12:02:31.830Z,28.10
2018-05-24T12:03:31.820Z,29.40
2018-05-24T12:04:31.812Z,29.20
2018-05-24T12:05:31.803Z,27.00
2018-05-24T12:06:31.795Z,28.10
2018-05-24T12:07:31.784Z,28.30
2018-05-24T12:08:31.776Z,27.40
2018-05-24T12:09:31.766Z,27.80
2018-05-24T12:10:31.759Z,27.70
2018-05-24T12:11:31.749Z,27.80
2018-05-24T12:12:31.740Z,27.60
2018-05-24T12:13:31.731Z,26.50
2018-05-24T12:14:31.722Z,26.50
2018-05-24T12:15:31.715Z,26.20
2018-05-24T12:16:31.704Z,27.50
2018-05-24T12:17:31.700Z,27.20
2018-05-24T12:18:31.693Z,27.90
2018-05-24T12:19:31.677Z,27.90
2018-05-24T12:20:31.669Z,28.00
2018-05-24T12:21:31.661Z,27.80
2018-05-24T12:22:31.652Z,28.70
2018-05-24T12:23:31.645Z,29.00
2018-05-24T12:24:31.715Z,26.10
2018-05-24T12:25:31.629Z,27.40
2018-05-24T12:26:31.618Z,28.80
2018-05-24T12:27:31.613Z,29.30
2018-05-24T12:28:31.601Z,27.50
2018-05-24T12:29:31.597Z,28.60
2018-05-24T12:30:31.584Z,29.20
2018-05-24T12:31:31.575Z,29.20
2018-05-24T12:32:31.568Z,29.60
2018-05-24T12:33:31.558Z,28.20
2018-05-24T12:34:31.551Z,28.40
2018-05-24T12:35:31.651Z,27.80
2018-05-24T12:36:31.532Z,27.20
2018-05-24T12:37:31.524Z,28.50
2018-05-24T12:38:31.518Z,27.60
2018-05-24T12:39:31.507Z,26.60
2018-05-24T12:40:31.501Z,27.60
2018-05-24T12:41:31.524Z,26.20
2018-05-24T12:42:31.481Z,28.30
2018-05-24T12:43:31.472Z,29.00
2018-05-24T12:44:31.464Z,29.70
2018-05-24T12:45:31.455Z,29.40
2018-05-24T12:46:31.450Z,28.10
2018-05-24T12:47:31.439Z,29.30
2018-05-24T12:48:31.432Z,30.20
2018-05-24T12:49:31.422Z,28.30
2018-05-24T12:50:31.412Z,28.90
2018-05-24T12:51:31.403Z,29.90
2018-05-24T12:52:31.393Z,28.40